Data for 12/21/2008

Time Sea-Level Adjusted Pressure Absolute Pressure Temperature Relative Humidity Dew Point   
(mb) (inHg) (mb) (inHg) (C) (F) (%) (C) (F)
00:05 1025 30.27 854 25.22 -25.4 -13.7 79 -28 -18.4
00:10 1025 30.27 854 25.22 -25.1 -13.2 78 -27.8 -18.1
00:15 1025 30.27 854 25.22 -25 -12.9 77 -27.9 -18.3
00:20 1025 30.27 854 25.22 -25.1 -13.2 77 -28.1 -18.6
00:25 1025 30.27 854 25.22 -25.1 -13.2 77 -28 -18.4
00:30 1025 30.27 854 25.22 -25.1 -13.1 77 -28 -18.4
00:35 1025 30.27 854 25.22 -25.1 -13.3 77 -28.1 -18.6
00:40 1025 30.27 854 25.22 -25.3 -13.6 75 -28.5 -19.3
00:45 1025 30.27 854 25.22 -25.7 -14.2 78 -28.5 -19.3
00:50 1025 30.27 854 25.22 -25.8 -14.4 78 -28.5 -19.3
00:55 1025 30.27 854 25.22 -25.7 -14.2 78 -28.4 -19.2
01:00 1025 30.27 854 25.22 -25.6 -14 79 -28.2 -18.7
01:05 1025 30.27 854 25.22 -25.3 -13.6 78 -28.1 -18.6
01:10 1024 30.24 854 25.22 -25.3 -13.5 78 -28.1 -18.6
01:15 1024 30.24 854 25.22 -25.4 -13.8 77 -28.4 -19.1
01:20 1024 30.24 854 25.22 -25.5 -13.8 81 -27.8 -18.1
01:25 1024 30.24 854 25.22 -25 -13 79 -27.6 -17.8
01:30 1024 30.24 854 25.22 -24.7 -12.5 78 -27.5 -17.5
01:35 1024 30.24 853 25.19 -24.6 -12.3 77 -27.5 -17.5
01:40 1024 30.24 853 25.19 -24.5 -12.2 77 -27.5 -17.4
01:45 1024 30.24 853 25.19 -24.5 -12.1 78 -27.4 -17.2
01:50 1024 30.24 853 25.19 -24.5 -12.1 78 -27.3 -17.2
01:55 1024 30.24 853 25.19 -24.6 -12.2 77 -27.5 -17.5
02:00 1024 30.24 853 25.19 -24.7 -12.4 78 -27.4 -17.4
02:05 1024 30.24 853 25.19 -24.5 -12.1 78 -27.3 -17.2
02:10 1024 30.24 853 25.19 -24.3 -11.8 78 -27.2 -16.9
02:15 1024 30.24 853 25.19 -24.2 -11.5 78 -27 -16.6
02:20 1024 30.24 853 25.19 -24 -11.2 78 -26.8 -16.3
02:25 1024 30.24 853 25.19 -23.9 -11 76 -27 -16.5
02:30 1024 30.24 853 25.19 -23.9 -10.9 77 -26.8 -16.3
02:35 1024 30.24 853 25.19 -23.8 -10.9 77 -26.9 -16.4
02:40 1024 30.24 853 25.19 -24 -11.3 78 -26.9 -16.4
02:45 1024 30.24 853 25.19 -23.9 -11 77 -26.9 -16.4
02:50 1024 30.24 853 25.19 -23.9 -11 78 -26.8 -16.2
02:55 1024 30.24 853 25.19 -23.8 -10.8 77 -26.8 -16.2
03:00 1024 30.24 853 25.19 -23.9 -10.9 77 -26.8 -16.3
03:05 1024 30.24 853 25.19 -24 -11.2 77 -27 -16.6
03:10 1024 30.24 853 25.19 -24.3 -11.7 77 -27.2 -17
03:15 1024 30.24 853 25.19 -24.6 -12.2 78 -27.3 -17.1
03:20 1024 30.24 853 25.19 -24.6 -12.3 79 -27.2 -17
03:25 1024 30.24 853 25.19 -24.6 -12.3 80 -27.1 -16.8
03:30 1024 30.24 853 25.19 -24.5 -12.1 80 -27 -16.6
03:35 1024 30.24 853 25.19 -24.5 -12.2 80 -27.1 -16.8
03:40 1023 30.21 853 25.19 -24.5 -12.1 78 -27.3 -17.1
03:45 1023 30.21 853 25.19 -24.5 -12.2 79 -27.2 -17
03:50 1023 30.21 853 25.19 -24.6 -12.3 78 -27.4 -17.3
03:55 1023 30.21 853 25.19 -24.6 -12.4 79 -27.3 -17.1
04:00 1023 30.21 853 25.19 -24.3 -11.8 79 -27 -16.6
04:05 1023 30.21 853 25.19 -24.2 -11.5 79 -26.9 -16.4
04:10 1023 30.21 853 25.19 -24.1 -11.4 79 -26.8 -16.2
04:15 1023 30.21 853 25.19 -24.1 -11.4 79 -26.8 -16.3
04:20 1023 30.21 853 25.19 -24.1 -11.4 79 -26.8 -16.3
04:25 1023 30.21 853 25.19 -24.1 -11.4 78 -26.8 -16.3
04:30 1023 30.21 852 25.16 -24.1 -11.3 79 -26.8 -16.2
04:35 1023 30.21 852 25.16 -24.1 -11.3 78 -26.9 -16.4
04:40 1023 30.21 852 25.16 -24.2 -11.5 78 -27 -16.7
04:45 1023 30.21 852 25.16 -24.4 -12 78 -27.2 -16.9
04:50 1023 30.21 852 25.16 -24.5 -12 78 -27.3 -17.1
04:55 1023 30.21 852 25.16 -24.6 -12.3 79 -27.3 -17.1
05:00 1023 30.21 852 25.16 -24.4 -11.9 78 -27.2 -17
05:05 1023 30.21 852 25.16 -24.3 -11.7 78 -27.1 -16.8
05:10 1023 30.21 852 25.16 -24.2 -11.5 76 -27.2 -16.9
05:15 1023 30.21 852 25.16 -24.2 -11.5 77 -27.1 -16.8
05:20 1023 30.21 852 25.16 -24.3 -11.8 79 -27 -16.7
05:25 1022 30.18 852 25.16 -24.4 -11.9 79 -27.1 -16.8
05:30 1022 30.18 851 25.13 -24.3 -11.7 79 -27 -16.6
05:35 1022 30.18 851 25.13 -24.1 -11.4 78 -26.9 -16.4
05:40 1022 30.18 851 25.13 -24 -11.1 78 -26.7 -16.1
05:45 1022 30.18 851 25.13 -23.7 -10.7 79 -26.4 -15.6
05:50 1022 30.18 851 25.13 -23.4 -10.2 78 -26.2 -15.2
05:55 1022 30.18 851 25.13 -23.3 -9.9 78 -26.1 -15
06:00 1022 30.18 852 25.16 -23.2 -9.8 78 -26.1 -15
06:05 1022 30.18 852 25.16 -23.1 -9.5 77 -26.1 -15
06:10 1022 30.18 852 25.16 -23.1 -9.6 76 -26.2 -15.1
06:15 1022 30.18 852 25.16 -23.2 -9.7 77 -26.2 -15.2
06:20 1022 30.18 852 25.16 -23.2 -9.7 77 -26.2 -15.1
06:25 1022 30.18 851 25.13 -23.2 -9.8 77 -26.3 -15.3
06:30 1022 30.18 851 25.13 -23.4 -10.2 78 -26.3 -15.4
06:35 1022 30.18 851 25.13 -23.8 -10.9 81 -26.2 -15.1
06:40 1022 30.18 851 25.13 -23.6 -10.5 80 -26.2 -15.2
06:45 1022 30.18 851 25.13 -23.5 -10.3 81 -25.9 -14.7
06:50 1022 30.18 852 25.16 -23.3 -10 80 -25.8 -14.5
06:55 1022 30.18 851 25.13 -23.3 -9.9 79 -25.9 -14.7
07:00 1022 30.18 851 25.13 -23.3 -9.9 79 -25.9 -14.6
07:05 1022 30.18 851 25.13 -23.3 -10 79 -26 -14.9
07:10 1022 30.18 851 25.13 -23.5 -10.3 80 -26.1 -14.9
07:15 1022 30.18 851 25.13 -23.4 -10.2 80 -25.9 -14.7
07:20 1022 30.18 851 25.13 -23.4 -10.2 80 -26 -14.8
07:25 1022 30.18 851 25.13 -23.5 -10.3 80 -26.1 -14.9
07:30 1022 30.18 851 25.13 -23.5 -10.3 80 -26.1 -15
07:35 1022 30.18 851 25.13 -23.5 -10.3 79 -26.1 -15.1
07:40 1022 30.18 851 25.13 -23.4 -10.2 79 -26.1 -15
07:45 1022 30.18 851 25.13 -23.3 -10 80 -25.9 -14.6
07:50 1022 30.18 851 25.13 -23.2 -9.8 79 -25.9 -14.7
07:55 1021 30.15 850 25.1 -23.2 -9.8 80 -25.8 -14.4
08:00 1021 30.15 850 25.1 -23.1 -9.5 80 -25.7 -14.2
08:05 1021 30.15 850 25.1 -22.9 -9.2 81 -25.3 -13.6
08:10 1021 30.15 850 25.1 -22.7 -8.8 78 -25.5 -14
08:15 1021 30.15 850 25.1 -22.5 -8.6 78 -25.4 -13.7
08:20 1021 30.15 850 25.1 -22.4 -8.3 79 -25.1 -13.2
08:25 1021 30.15 850 25.1 -22.2 -8 80 -24.8 -12.6
08:30 1021 30.15 850 25.1 -22 -7.6 79 -24.7 -12.4
08:35 1021 30.15 850 25.1 -21.7 -7.1 81 -24.2 -11.6
08:40 1021 30.15 850 25.1 -21.4 -6.5 77 -24.3 -11.8
08:45 1021 30.15 850 25.1 -21.2 -6.1 76 -24.4 -11.9
08:50 1021 30.15 850 25.1 -21.1 -5.9 77 -24.1 -11.4
08:55 1021 30.15 850 25.1 -20.9 -5.5 76 -24 -11.3
09:00 1020 30.12 850 25.1 -20.7 -5.2 74 -24.1 -11.4
09:05 1020 30.12 850 25.1 -20.5 -4.9 74 -24 -11.3
09:10 1020 30.12 850 25.1 -20.4 -4.7 75 -23.7 -10.7
09:15 1020 30.12 849 25.07 -20.2 -4.3 74 -23.7 -10.6
09:20 1020 30.12 849 25.07 -20 -4 73 -23.6 -10.5
09:25 1020 30.12 849 25.07 -19.8 -3.7 73 -23.6 -10.4
09:30 1020 30.12 850 25.1 -19.9 -3.9 75 -23.4 -10
09:35 1020 30.12 850 25.1 -19.6 -3.2 72 -23.4 -10.1
09:40 1020 30.12 849 25.07 -19.4 -2.9 71 -23.4 -10.2
09:45 1020 30.12 849 25.07 -19.3 -2.8 72 -23.2 -9.7
09:50 1020 30.12 849 25.07 -19.2 -2.6 72 -23.1 -9.6
09:55 1020 30.12 849 25.07 -19.2 -2.5 72 -23.1 -9.5
10:00 1020 30.12 849 25.07 -19.1 -2.3 75 -22.5 -8.6
10:05 1020 30.12 849 25.07 -18.6 -1.4 73 -22.4 -8.2
10:10 1020 30.12 849 25.07 -18.5 -1.3 73 -22.3 -8.1
10:15 1020 30.12 849 25.07 -18.3 -1 70 -22.5 -8.5
10:20 1020 30.12 849 25.07 -18.3 -1 70 -22.5 -8.5
10:25 1020 30.12 849 25.07 -18.4 -1.2 71 -22.5 -8.4
10:30 1020 30.12 849 25.07 -18.4 -1.2 71 -22.5 -8.5
10:35 1020 30.12 849 25.07 -18.4 -1.2 72 -22.4 -8.3
10:40 1020 30.12 849 25.07 -18.4 -1.2 71 -22.4 -8.4
10:45 1020 30.12 849 25.07 -18.2 -0.8 71 -22.2 -8
10:50 1020 30.12 849 25.07 -18.1 -0.5 69 -22.4 -8.3
10:55 1020 30.12 849 25.07 -18.1 -0.5 71 -22.2 -7.9
11:00 1020 30.12 849 25.07 -17.9 -0.2 70 -22.2 -8
11:05 1020 30.12 849 25.07 -17.8 -0 69 -22.2 -8
11:10 1019 30.09 848 25.04 -17.5 0.6 67 -22.1 -7.9
11:15 1019 30.09 848 25.04 -16.7 1.9 66 -21.6 -6.8
11:20 1019 30.09 848 25.04 -16.9 1.7 68 -21.4 -6.6
11:25 1019 30.09 848 25.04 -17.3 0.9 70 -21.6 -6.8
11:30 1019 30.09 848 25.04 -17 1.3 69 -21.5 -6.6
11:35 1018 30.06 848 25.04 -17.3 0.8 71 -21.5 -6.7
11:40 1018 30.06 847 25.01 -17 1.3 70 -21.3 -6.4
11:45 1018 30.06 847 25.01 -17.1 1.2 68 -21.6 -7
11:50 1018 30.06 847 25.01 -16.9 1.5 66 -21.9 -7.4
11:55 1018 30.06 847 25.01 -16.6 2.2 66 -21.5 -6.6
12:00 1018 30.06 847 25.01 -16.7 1.9 67 -21.4 -6.5
12:05 1018 30.06 847 25.01 -16.6 2.1 67 -21.4 -6.6
12:10 1018 30.06 847 25.01 -16.8 1.8 67 -21.6 -6.9
12:15 1018 30.06 847 25.01 -15.9 3.4 65 -21.1 -5.9
12:20 1018 30.06 847 25.01 -16.2 2.9 65 -21.3 -6.3
12:25 1018 30.06 847 25.01 -16.3 2.6 65 -21.4 -6.6
12:30 1018 30.06 847 25.01 -15.6 3.9 64 -20.9 -5.7
12:35 1018 30.06 847 25.01 -15.4 4.3 64 -20.8 -5.5
12:40 1018 30.06 847 25.01 -15.3 4.4 64 -20.7 -5.2
12:45 1018 30.06 847 25.01 -15.9 3.4 66 -20.8 -5.4
12:50 1018 30.06 847 25.01 -15.7 3.8 66 -20.7 -5.3
12:55 1017 30.03 847 25.01 -15.4 4.4 65 -20.6 -5
13:00 1017 30.03 846 24.98 -15.7 3.8 67 -20.5 -4.9
13:05 1017 30.03 846 24.98 -16.2 2.8 70 -20.5 -5
13:10 1017 30.03 846 24.98 -16.4 2.6 70 -20.6 -5.1
13:15 1017 30.03 846 24.98 -16.1 3.1 67 -20.9 -5.6
13:20 1017 30.03 846 24.98 -15.9 3.3 68 -20.6 -5.2
13:25 1017 30.03 846 24.98 -15.9 3.4 67 -20.6 -5.2
13:30 1017 30.03 846 24.98 -15.6 3.9 67 -20.4 -4.7
13:35 1017 30.03 846 24.98 -15.5 4.2 68 -20.1 -4.2
13:40 1017 30.03 846 24.98 -15 5.1 66 -20 -3.9
13:45 1016 30 846 24.98 -14.9 5.2 67 -19.7 -3.4
13:50 1016 30 846 24.98 -15.3 4.5 69 -19.7 -3.5
13:55 1016 30 845 24.95 -15.8 3.5 69 -20.2 -4.4
14:00 1016 30 845 24.95 -16.1 3.1 71 -20.2 -4.4
14:05 1016 30 845 24.95 -16 3.2 72 -20 -4
14:10 1016 30 845 24.95 -15.7 3.8 71 -19.8 -3.6
14:15 1016 30 845 24.95 -15.4 4.4 69 -19.9 -3.8
14:20 1016 30 845 24.95 -15.1 4.9 67 -19.9 -3.8
14:25 1016 30 845 24.95 -15.9 3.3 72 -20 -3.9
14:30 1016 30 845 24.95 -16 3.2 71 -20.2 -4.4
14:35 1016 30 845 24.95 -15.9 3.3 71 -20.1 -4.2
14:40 1016 30 845 24.95 -16 3.3 73 -19.8 -3.6
14:45 1016 30 845 24.95 -15.8 3.6 73 -19.5 -3.1
14:50 1016 30 845 24.95 -15.4 4.2 71 -19.6 -3.2
14:55 1015 29.97 845 24.95 -15.3 4.4 69 -19.7 -3.5
15:00 1015 29.97 845 24.95 -15.5 4 71 -19.6 -3.3
15:05 1015 29.97 845 24.95 -15.3 4.4 72 -19.3 -2.8
15:10 1015 29.97 845 24.95 -15.2 4.6 72 -19.2 -2.6
15:15 1015 29.97 844 24.92 -15.5 4.2 70 -19.7 -3.4
15:20 1015 29.97 844 24.92 -15.9 3.5 73 -19.6 -3.3
15:25 1015 29.97 844 24.92 -15.8 3.6 73 -19.5 -3.1
15:30 1015 29.97 845 24.95 -15.5 4.2 72 -19.5 -3.1
15:35 1015 29.97 845 24.95 -15.4 4.2 71 -19.5 -3.1
15:40 1016 30 845 24.95 -15.3 4.5 72 -19.3 -2.7
15:45 1016 30 845 24.95 -15.2 4.6 71 -19.3 -2.8
15:50 1015 29.97 845 24.95 -15.5 4 74 -19.2 -2.6
15:55 1015 29.97 844 24.92 -15.9 3.3 75 -19.4 -2.8
16:00 1015 29.97 844 24.92 -16 3.2 74 -19.6 -3.3
16:05 1014 29.94 843 24.89 -16.1 2.9 77 -19.4 -2.9
16:10 1014 29.94 843 24.89 -16.3 2.7 77 -19.4 -2.9
16:15 1014 29.94 843 24.89 -16.2 2.8 76 -19.5 -3.1
16:20 1014 29.94 843 24.89 -16.3 2.7 77 -19.3 -2.8
16:25 1014 29.94 843 24.89 -16.2 2.8 78 -19.3 -2.7
16:30 1014 29.94 843 24.89 -16.1 3.1 77 -19.1 -2.5
16:35 1014 29.94 843 24.89 -15.7 3.7 78 -18.8 -1.8
16:40 1014 29.94 843 24.89 -15.5 4.2 76 -18.7 -1.7
16:45 1014 29.94 844 24.92 -15.3 4.4 77 -18.5 -1.2
16:50 1014 29.94 844 24.92 -15 5.1 76 -18.3 -0.9
16:55 1015 29.97 844 24.92 -14.8 5.5 75 -18.3 -0.9
17:00 1014 29.94 844 24.92 -14.7 5.6 74 -18.3 -0.9
17:05 1014 29.94 843 24.89 -14.8 5.4 75 -18.3 -0.9
17:10 1014 29.94 843 24.89 -14.9 5.2 75 -18.4 -1.1
17:15 1014 29.94 843 24.89 -15 4.9 77 -18.2 -0.7
17:20 1014 29.94 843 24.89 -15.2 4.6 78 -18.2 -0.8
17:25 1013 29.91 843 24.89 -15.3 4.5 77 -18.5 -1.3
17:30 1013 29.91 842 24.86 -15.3 4.4 75 -18.8 -1.8
17:35 1013 29.91 842 24.86 -15.4 4.4 76 -18.7 -1.7
17:40 1013 29.91 842 24.86 -15.4 4.3 76 -18.7 -1.6
17:45 1012 29.88 842 24.86 -15.4 4.2 78 -18.4 -1.1
17:50 1012 29.88 841 24.83 -15.6 4 80 -18.3 -0.9
17:55 1012 29.88 841 24.83 -15.7 3.8 82 -18.1 -0.6
18:00 1011 29.85 841 24.83 -15.2 4.6 80 -17.9 -0.2
18:05 1011 29.85 840 24.81 -15.1 4.9 80 -17.8 -0.1
18:10 1011 29.85 840 24.81 -14.5 6 78 -17.5 0.5
18:15 1011 29.85 840 24.81 -13.9 6.9 78 -16.9 1.6
18:20 1011 29.85 840 24.81 -13.1 8.3 78 -16.3 2.7
18:25 1011 29.85 840 24.81 -12.4 9.7 74 -16.1 2.9
18:30 1011 29.85 840 24.81 -13.2 8.2 75 -16.8 1.7
18:35 1011 29.85 840 24.81 -14.8 5.4 75 -18.3 -0.9
18:40 1011 29.85 840 24.81 -15.9 3.3 77 -19.1 -2.4
18:45 1011 29.85 840 24.81 -16.4 2.4 78 -19.4 -2.9
18:50 1011 29.85 840 24.81 -16.5 2.3 78 -19.4 -3
18:55 1011 29.85 840 24.81 -16.5 2.2 78 -19.5 -3.2
19:00 1011 29.85 840 24.81 -16.7 1.9 79 -19.6 -3.3
19:05 1011 29.85 840 24.81 -17 1.5 79 -19.7 -3.5
19:10 1011 29.85 840 24.81 -17.2 1.1 80 -19.9 -3.8
19:15 1011 29.85 840 24.81 -17.4 0.7 80 -20.1 -4.1
19:20 1011 29.85 840 24.81 -17.4 0.6 81 -20 -3.9
19:25 1011 29.85 840 24.81 -17.5 0.6 81 -20 -3.9
19:30 1011 29.85 840 24.81 -17.2 1 81 -19.8 -3.6
19:35 1010 29.83 840 24.81 -17.2 1.1 80 -19.8 -3.6
19:40 1010 29.83 839 24.78 -16.9 1.5 80 -19.6 -3.4
19:45 1010 29.83 839 24.78 -16.9 1.7 80 -19.6 -3.2
19:50 1010 29.83 839 24.78 -17 1.4 82 -19.4 -3
19:55 1010 29.83 839 24.78 -16.8 1.7 81 -19.4 -2.8
20:00 1010 29.83 839 24.78 -16.7 1.9 80 -19.4 -2.9
20:05 1010 29.83 839 24.78 -16.7 1.9 79 -19.5 -3.1
20:10 1010 29.83 839 24.78 -16.8 1.7 80 -19.5 -3
20:15 1010 29.83 839 24.78 -16.7 1.9 80 -19.4 -2.9
20:20 1009 29.8 839 24.78 -16.6 2.1 79 -19.4 -2.9
20:25 1009 29.8 839 24.78 -16.4 2.5 78 -19.4 -3
20:30 1009 29.8 839 24.78 -16.2 2.8 79 -19 -2.2
20:35 1010 29.83 839 24.78 -16 3.2 79 -18.9 -1.9
20:40 1010 29.83 839 24.78 -15.8 3.7 78 -18.7 -1.7
20:45 1009 29.8 839 24.78 -15.5 4.1 78 -18.5 -1.3
20:50 1009 29.8 839 24.78 -15.5 4.2 77 -18.6 -1.4
20:55 1009 29.8 839 24.78 -15.5 4.1 79 -18.4 -1.1
21:00 1009 29.8 839 24.78 -15.3 4.4 78 -18.3 -1
21:05 1009 29.8 838 24.75 -15.4 4.3 79 -18.3 -0.9
21:10 1009 29.8 838 24.75 -15.3 4.5 78 -18.3 -0.9
21:15 1009 29.8 838 24.75 -15.2 4.6 78 -18.2 -0.7
21:20 1009 29.8 838 24.75 -15.2 4.7 79 -18 -0.5
21:25 1008 29.77 838 24.75 -15 5 78 -18 -0.4
21:30 1008 29.77 838 24.75 -14.8 5.4 76 -18.1 -0.6
21:35 1008 29.77 837 24.72 -14.6 5.7 75 -18.2 -0.7
21:40 1008 29.77 837 24.72 -14.4 6.1 69 -18.9 -1.9
21:45 1008 29.77 837 24.72 -14.1 6.6 69 -18.7 -1.6
21:50 1008 29.77 837 24.72 -13.9 7 71 -18.2 -0.7
21:55 1008 29.77 837 24.72 -13.7 7.3 72 -17.8 -0
22:00 1008 29.77 837 24.72 -13.3 8 71 -17.5 0.5
22:05 1008 29.77 837 24.72 -13.2 8.2 73 -17.2 1.1
22:10 1008 29.77 837 24.72 -13 8.6 73 -16.8 1.7
22:15 1008 29.77 837 24.72 -12.7 9.1 71 -16.9 1.6
22:20 1008 29.77 837 24.72 -12.6 9.3 71 -16.8 1.7
22:25 1008 29.77 837 24.72 -12.5 9.5 72 -16.6 2
22:30 1008 29.77 837 24.72 -12.6 9.2 73 -16.5 2.4
22:35 1008 29.77 837 24.72 -12.8 8.9 74 -16.6 2.1
22:40 1007 29.74 837 24.72 -13 8.6 74 -16.7 1.9
22:45 1007 29.74 837 24.72 -13.1 8.3 76 -16.6 2.1
22:50 1007 29.74 836 24.69 -13.4 7.9 75 -16.9 1.6
22:55 1007 29.74 836 24.69 -13.7 7.3 78 -16.8 1.8
23:00 1007 29.74 836 24.69 -13.6 7.6 77 -16.8 1.8
23:05 1007 29.74 836 24.69 -13.7 7.4 79 -16.5 2.2
23:10 1007 29.74 836 24.69 -13.6 7.4 79 -16.6 2.1
23:15 1007 29.74 836 24.69 -13.5 7.7 78 -16.5 2.2
23:20 1007 29.74 836 24.69 -13.5 7.8 77 -16.7 2
23:25 1007 29.74 836 24.69 -13.7 7.4 79 -16.5 2.2
23:30 1007 29.74 836 24.69 -13.7 7.3 79 -16.6 2.1
23:35 1006 29.71 836 24.69 -13.8 7.3 80 -16.4 2.4
23:40 1006 29.71 836 24.69 -13.8 7.2 81 -16.3 2.6
23:45 1006 29.71 836 24.69 -13.7 7.3 80 -16.4 2.4
23:50 1006 29.71 835 24.66 -13.7 7.3 81 -16.3 2.7
23:55 1006 29.71 835 24.66 -13.7 7.3 82 -16.2 2.8
24:00 1006 29.71 835 24.66 -13.7 7.3 82 -16.1 3